sensor_id;sensor_type;location;lat;lon;timestamp;temperature;humidity
12446;DHT22;6287;50.984;7.022;2023-03-15T00:00:10;3.30;99.90
12446;DHT22;6287;50.984;7.022;2023-03-15T00:02:37;3.30;99.90
12446;DHT22;6287;50.984;7.022;2023-03-15T00:05:06;3.40;99.90
12446;DHT22;6287;50.984;7.022;2023-03-15T00:07:33;3.40;99.90
12446;DHT22;6287;50.984;7.022;2023-03-15T00:10:01;3.40;99.90
12446;DHT22;6287;50.984;7.022;2023-03-15T00:12:34;3.40;99.90
12446;DHT22;6287;50.984;7.022;2023-03-15T00:15:02;3.50;99.90
12446;DHT22;6287;50.984;7.022;2023-03-15T00:17:28;3.50;99.90
12446;DHT22;6287;50.984;7.022;2023-03-15T00:19:53;3.50;99.90
12446;DHT22;6287;50.984;7.022;2023-03-15T00:22:19;3.50;99.90
12446;DHT22;6287;50.984;7.022;2023-03-15T00:24:47;3.50;99.90
12446;DHT22;6287;50.984;7.022;2023-03-15T00:27:15;3.60;99.90
12446;DHT22;6287;50.984;7.022;2023-03-15T00:29:42;3.60;99.90
12446;DHT22;6287;50.984;7.022;2023-03-15T00:32:11;3.50;99.90
12446;DHT22;6287;50.984;7.022;2023-03-15T00:34:36;3.50;99.90
12446;DHT22;6287;50.984;7.022;2023-03-15T00:37:05;3.60;99.90
12446;DHT22;6287;50.984;7.022;2023-03-15T00:39:33;3.60;99.90
12446;DHT22;6287;50.984;7.022;2023-03-15T00:42:02;3.60;99.90
12446;DHT22;6287;50.984;7.022;2023-03-15T00:44:32;3.60;99.90
12446;DHT22;6287;50.984;7.022;2023-03-15T00:47:01;3.70;99.90
12446;DHT22;6287;50.984;7.022;2023-03-15T00:49:26;3.70;99.90
12446;DHT22;6287;50.984;7.022;2023-03-15T00:51:54;3.70;99.90
12446;DHT22;6287;50.984;7.022;2023-03-15T00:54:20;3.70;99.90
12446;DHT22;6287;50.984;7.022;2023-03-15T00:56:48;3.70;99.90
12446;DHT22;6287;50.984;7.022;2023-03-15T00:59:13;3.70;99.90
12446;DHT22;6287;50.984;7.022;2023-03-15T01:01:39;3.70;99.90
12446;DHT22;6287;50.984;7.022;2023-03-15T01:04:11;3.80;99.90
12446;DHT22;6287;50.984;7.022;2023-03-15T01:06:41;3.70;99.90
12446;DHT22;6287;50.984;7.022;2023-03-15T01:09:09;3.70;99.90
12446;DHT22;6287;50.984;7.022;2023-03-15T01:11:35;3.70;99.90
12446;DHT22;6287;50.984;7.022;2023-03-15T01:14:05;3.70;99.90
12446;DHT22;6287;50.984;7.022;2023-03-15T01:16:33;3.70;99.90
12446;DHT22;6287;50.984;7.022;2023-03-15T01:18:59;3.70;99.90
12446;DHT22;6287;50.984;7.022;2023-03-15T01:21:29;3.70;99.90
12446;DHT22;6287;50.984;7.022;2023-03-15T01:23:57;3.60;99.90
12446;DHT22;6287;50.984;7.022;2023-03-15T01:26:22;3.60;99.90
12446;DHT22;6287;50.984;7.022;2023-03-15T01:28:50;3.60;99.90
12446;DHT22;6287;50.984;7.022;2023-03-15T01:31:27;3.70;99.90
12446;DHT22;6287;50.984;7.022;2023-03-15T01:33:57;3.70;99.90
12446;DHT22;6287;50.984;7.022;2023-03-15T01:36:23;3.70;99.90
12446;DHT22;6287;50.984;7.022;2023-03-15T01:38:49;3.70;99.90
12446;DHT22;6287;50.984;7.022;2023-03-15T01:41:16;3.80;99.90
12446;DHT22;6287;50.984;7.022;2023-03-15T01:43:42;3.80;99.90
12446;DHT22;6287;50.984;7.022;2023-03-15T01:46:23;3.70;99.90
12446;DHT22;6287;50.984;7.022;2023-03-15T01:49:11;3.60;99.90
12446;DHT22;6287;50.984;7.022;2023-03-15T01:54:21;3.60;99.90
12446;DHT22;6287;50.984;7.022;2023-03-15T01:56:58;3.50;99.90
12446;DHT22;6287;50.984;7.022;2023-03-15T01:59:39;3.50;99.90
12446;DHT22;6287;50.984;7.022;2023-03-15T02:02:09;3.50;99.90
12446;DHT22;6287;50.984;7.022;2023-03-15T02:04:43;3.40;99.90
12446;DHT22;6287;50.984;7.022;2023-03-15T02:07:12;3.40;99.90
12446;DHT22;6287;50.984;7.022;2023-03-15T02:12:16;3.30;99.90
12446;DHT22;6287;50.984;7.022;2023-03-15T02:14:45;3.30;99.90
12446;DHT22;6287;50.984;7.022;2023-03-15T02:17:11;3.20;99.90
12446;DHT22;6287;50.984;7.022;2023-03-15T02:22:58;3.20;99.90
12446;DHT22;6287;50.984;7.022;2023-03-15T02:28:14;3.00;99.90
12446;DHT22;6287;50.984;7.022;2023-03-15T02:30:41;3.00;99.90
12446;DHT22;6287;50.984;7.022;2023-03-15T02:33:28;2.90;99.90
12446;DHT22;6287;50.984;7.022;2023-03-15T02:35:55;2.80;99.90
12446;DHT22;6287;50.984;7.022;2023-03-15T02:38:32;2.70;99.90
12446;DHT22;6287;50.984;7.022;2023-03-15T02:41:00;2.50;99.90
12446;DHT22;6287;50.984;7.022;2023-03-15T02:43:28;2.30;99.90
12446;DHT22;6287;50.984;7.022;2023-03-15T02:45:58;2.20;99.90
12446;DHT22;6287;50.984;7.022;2023-03-15T02:48:30;2.10;99.90
12446;DHT22;6287;50.984;7.022;2023-03-15T02:50:56;2.00;99.90
12446;DHT22;6287;50.984;7.022;2023-03-15T02:53:24;1.90;99.90
12446;DHT22;6287;50.984;7.022;2023-03-15T02:55:52;1.80;99.90
12446;DHT22;6287;50.984;7.022;2023-03-15T02:58:24;1.80;99.90
12446;DHT22;6287;50.984;7.022;2023-03-15T03:00:52;1.80;99.90
12446;DHT22;6287;50.984;7.022;2023-03-15T03:03:20;1.80;99.90
12446;DHT22;6287;50.984;7.022;2023-03-15T03:05:48;1.80;99.90
12446;DHT22;6287;50.984;7.022;2023-03-15T03:08:16;1.80;99.90
12446;DHT22;6287;50.984;7.022;2023-03-15T03:10:44;1.70;99.90
12446;DHT22;6287;50.984;7.022;2023-03-15T03:13:09;1.80;99.90
12446;DHT22;6287;50.984;7.022;2023-03-15T03:15:42;1.70;99.90
12446;DHT22;6287;50.984;7.022;2023-03-15T03:18:09;1.80;99.90
12446;DHT22;6287;50.984;7.022;2023-03-15T03:20:37;1.80;99.90
12446;DHT22;6287;50.984;7.022;2023-03-15T03:23:03;1.80;99.90
12446;DHT22;6287;50.984;7.022;2023-03-15T03:25:33;1.90;99.90
12446;DHT22;6287;50.984;7.022;2023-03-15T03:28:00;1.90;99.90
12446;DHT22;6287;50.984;7.022;2023-03-15T03:30:28;2.00;99.90
12446;DHT22;6287;50.984;7.022;2023-03-15T03:32:58;3.80;99.90
12446;DHT22;6287;50.984;7.022;2023-03-15T03:35:23;2.10;99.90
12446;DHT22;6287;50.984;7.022;2023-03-15T03:37:54;2.20;99.90
12446;DHT22;6287;50.984;7.022;2023-03-15T03:40:22;2.20;99.90
12446;DHT22;6287;50.984;7.022;2023-03-15T03:42:48;2.20;99.90
12446;DHT22;6287;50.984;7.022;2023-03-15T03:45:16;2.20;99.90
12446;DHT22;6287;50.984;7.022;2023-03-15T03:47:44;2.20;99.90
12446;DHT22;6287;50.984;7.022;2023-03-15T03:50:10;2.20;99.90
12446;DHT22;6287;50.984;7.022;2023-03-15T03:52:36;2.20;99.90
12446;DHT22;6287;50.984;7.022;2023-03-15T03:55:10;2.20;99.90
12446;DHT22;6287;50.984;7.022;2023-03-15T03:57:39;2.20;99.90
12446;DHT22;6287;50.984;7.022;2023-03-15T04:00:05;2.20;99.90
12446;DHT22;6287;50.984;7.022;2023-03-15T04:02:36;2.20;99.90
12446;DHT22;6287;50.984;7.022;2023-03-15T04:05:02;2.20;99.90
12446;DHT22;6287;50.984;7.022;2023-03-15T04:07:28;2.20;99.90
12446;DHT22;6287;50.984;7.022;2023-03-15T04:09:54;2.30;99.90
12446;DHT22;6287;50.984;7.022;2023-03-15T04:12:22;2.20;99.90
12446;DHT22;6287;50.984;7.022;2023-03-15T04:14:50;2.20;99.90
12446;DHT22;6287;50.984;7.022;2023-03-15T04:17:18;2.30;99.90
12446;DHT22;6287;50.984;7.022;2023-03-15T04:19:44;2.30;99.90
12446;DHT22;6287;50.984;7.022;2023-03-15T04:22:15;3.90;99.90
12446;DHT22;6287;50.984;7.022;2023-03-15T04:24:43;2.40;99.90
12446;DHT22;6287;50.984;7.022;2023-03-15T04:27:13;2.40;99.90
12446;DHT22;6287;50.984;7.022;2023-03-15T04:29:41;2.40;99.90
12446;DHT22;6287;50.984;7.022;2023-03-15T04:32:08;2.50;99.90
12446;DHT22;6287;50.984;7.022;2023-03-15T04:34:36;2.50;99.90
12446;DHT22;6287;50.984;7.022;2023-03-15T04:37:03;2.50;99.90
12446;DHT22;6287;50.984;7.022;2023-03-15T04:39:29;2.50;99.90
12446;DHT22;6287;50.984;7.022;2023-03-15T04:41:58;2.50;99.90
12446;DHT22;6287;50.984;7.022;2023-03-15T04:44:26;2.50;99.90
12446;DHT22;6287;50.984;7.022;2023-03-15T04:46:55;2.50;99.90
12446;DHT22;6287;50.984;7.022;2023-03-15T04:49:23;2.40;99.90
12446;DHT22;6287;50.984;7.022;2023-03-15T04:51:49;2.40;99.90
12446;DHT22;6287;50.984;7.022;2023-03-15T04:54:17;2.30;99.90
12446;DHT22;6287;50.984;7.022;2023-03-15T04:56:44;2.30;99.90
12446;DHT22;6287;50.984;7.022;2023-03-15T04:59:12;2.20;99.90
12446;DHT22;6287;50.984;7.022;2023-03-15T05:01:41;2.10;99.90
12446;DHT22;6287;50.984;7.022;2023-03-15T05:04:09;2.00;99.90
12446;DHT22;6287;50.984;7.022;2023-03-15T05:06:37;2.00;99.90
12446;DHT22;6287;50.984;7.022;2023-03-15T05:09:02;2.00;99.90
12446;DHT22;6287;50.984;7.022;2023-03-15T05:11:33;1.90;99.90
12446;DHT22;6287;50.984;7.022;2023-03-15T05:14:01;1.90;99.90
12446;DHT22;6287;50.984;7.022;2023-03-15T05:16:27;1.80;99.90
12446;DHT22;6287;50.984;7.022;2023-03-15T05:18:55;1.80;99.90
12446;DHT22;6287;50.984;7.022;2023-03-15T05:21:21;1.80;99.90
12446;DHT22;6287;50.984;7.022;2023-03-15T05:23:47;1.80;99.90
12446;DHT22;6287;50.984;7.022;2023-03-15T05:26:13;1.70;99.90
12446;DHT22;6287;50.984;7.022;2023-03-15T05:28:38;1.70;99.90
12446;DHT22;6287;50.984;7.022;2023-03-15T05:31:04;1.80;99.90
12446;DHT22;6287;50.984;7.022;2023-03-15T05:33:30;1.80;99.90
12446;DHT22;6287;50.984;7.022;2023-03-15T05:35:55;1.80;99.90
12446;DHT22;6287;50.984;7.022;2023-03-15T05:38:21;4.40;99.90
12446;DHT22;6287;50.984;7.022;2023-03-15T05:40:53;1.80;99.90
12446;DHT22;6287;50.984;7.022;2023-03-15T05:43:23;1.80;99.90
12446;DHT22;6287;50.984;7.022;2023-03-15T05:45:52;1.70;99.90
12446;DHT22;6287;50.984;7.022;2023-03-15T05:48:21;1.90;99.90
12446;DHT22;6287;50.984;7.022;2023-03-15T05:50:46;1.90;99.90
12446;DHT22;6287;50.984;7.022;2023-03-15T05:53:14;1.90;99.90
12446;DHT22;6287;50.984;7.022;2023-03-15T05:55:40;1.90;99.90
12446;DHT22;6287;50.984;7.022;2023-03-15T05:58:06;1.90;99.90
12446;DHT22;6287;50.984;7.022;2023-03-15T06:00:34;1.90;99.90
12446;DHT22;6287;50.984;7.022;2023-03-15T06:03:02;1.80;99.90
12446;DHT22;6287;50.984;7.022;2023-03-15T06:05:28;1.80;99.90
12446;DHT22;6287;50.984;7.022;2023-03-15T06:07:57;1.80;99.90
12446;DHT22;6287;50.984;7.022;2023-03-15T06:10:22;1.80;99.90
12446;DHT22;6287;50.984;7.022;2023-03-15T06:12:51;1.90;99.90
12446;DHT22;6287;50.984;7.022;2023-03-15T06:15:20;1.90;99.90
12446;DHT22;6287;50.984;7.022;2023-03-15T06:17:48;1.90;99.90
12446;DHT22;6287;50.984;7.022;2023-03-15T06:20:13;1.90;99.90
12446;DHT22;6287;50.984;7.022;2023-03-15T06:22:41;1.90;99.90
12446;DHT22;6287;50.984;7.022;2023-03-15T06:25:12;1.90;99.90
12446;DHT22;6287;50.984;7.022;2023-03-15T06:27:40;1.90;99.90
12446;DHT22;6287;50.984;7.022;2023-03-15T06:30:08;1.90;99.90
12446;DHT22;6287;50.984;7.022;2023-03-15T06:32:37;2.00;99.90
12446;DHT22;6287;50.984;7.022;2023-03-15T06:35:03;2.00;99.90
12446;DHT22;6287;50.984;7.022;2023-03-15T06:37:34;2.00;99.90
12446;DHT22;6287;50.984;7.022;2023-03-15T06:40:04;2.00;99.90
12446;DHT22;6287;50.984;7.022;2023-03-15T06:42:37;2.10;99.90
12446;DHT22;6287;50.984;7.022;2023-03-15T06:45:06;2.10;99.90
12446;DHT22;6287;50.984;7.022;2023-03-15T06:47:33;2.10;99.90
12446;DHT22;6287;50.984;7.022;2023-03-15T06:50:01;2.20;99.90
12446;DHT22;6287;50.984;7.022;2023-03-15T06:52:31;2.30;99.90
12446;DHT22;6287;50.984;7.022;2023-03-15T06:54:59;2.30;99.90
12446;DHT22;6287;50.984;7.022;2023-03-15T06:57:26;2.40;99.90
12446;DHT22;6287;50.984;7.022;2023-03-15T06:59:52;2.40;99.90
12446;DHT22;6287;50.984;7.022;2023-03-15T07:02:18;2.40;99.90
12446;DHT22;6287;50.984;7.022;2023-03-15T07:04:44;2.40;99.90
12446;DHT22;6287;50.984;7.022;2023-03-15T07:07:10;2.40;99.90
12446;DHT22;6287;50.984;7.022;2023-03-15T07:09:39;2.50;99.90
12446;DHT22;6287;50.984;7.022;2023-03-15T07:12:05;2.50;99.90
12446;DHT22;6287;50.984;7.022;2023-03-15T07:14:33;2.50;99.90
12446;DHT22;6287;50.984;7.022;2023-03-15T07:16:58;2.60;99.90
12446;DHT22;6287;50.984;7.022;2023-03-15T07:19:33;2.60;99.90
12446;DHT22;6287;50.984;7.022;2023-03-15T07:21:59;2.70;99.90
12446;DHT22;6287;50.984;7.022;2023-03-15T07:24:25;2.70;99.90
12446;DHT22;6287;50.984;7.022;2023-03-15T07:26:52;2.70;99.90
12446;DHT22;6287;50.984;7.022;2023-03-15T07:29:21;2.70;99.90
12446;DHT22;6287;50.984;7.022;2023-03-15T07:31:48;2.70;99.90
12446;DHT22;6287;50.984;7.022;2023-03-15T07:34:13;2.70;99.90
12446;DHT22;6287;50.984;7.022;2023-03-15T07:36:39;2.80;99.90
12446;DHT22;6287;50.984;7.022;2023-03-15T07:39:04;2.80;99.90
12446;DHT22;6287;50.984;7.022;2023-03-15T07:41:30;2.80;99.90
12446;DHT22;6287;50.984;7.022;2023-03-15T07:44:00;2.80;99.90
12446;DHT22;6287;50.984;7.022;2023-03-15T07:46:26;2.80;99.90
12446;DHT22;6287;50.984;7.022;2023-03-15T07:48:55;2.90;99.90
12446;DHT22;6287;50.984;7.022;2023-03-15T07:51:20;2.80;99.90
12446;DHT22;6287;50.984;7.022;2023-03-15T07:53:50;2.70;99.90
12446;DHT22;6287;50.984;7.022;2023-03-15T07:56:20;2.70;99.90
12446;DHT22;6287;50.984;7.022;2023-03-15T07:58:46;2.80;99.90
12446;DHT22;6287;50.984;7.022;2023-03-15T08:01:14;2.90;99.90
12446;DHT22;6287;50.984;7.022;2023-03-15T08:03:42;3.00;99.90
12446;DHT22;6287;50.984;7.022;2023-03-15T08:06:08;3.10;99.90
12446;DHT22;6287;50.984;7.022;2023-03-15T08:08:33;3.20;99.90
12446;DHT22;6287;50.984;7.022;2023-03-15T08:10:59;3.30;99.90
12446;DHT22;6287;50.984;7.022;2023-03-15T08:13:25;3.40;99.90
12446;DHT22;6287;50.984;7.022;2023-03-15T08:15:53;3.40;99.90
12446;DHT22;6287;50.984;7.022;2023-03-15T08:18:20;3.50;99.90
12446;DHT22;6287;50.984;7.022;2023-03-15T08:20:48;3.50;99.90
12446;DHT22;6287;50.984;7.022;2023-03-15T08:23:14;3.60;99.90
12446;DHT22;6287;50.984;7.022;2023-03-15T08:25:44;3.70;99.90
12446;DHT22;6287;50.984;7.022;2023-03-15T08:28:10;3.80;99.90
12446;DHT22;6287;50.984;7.022;2023-03-15T08:30:38;3.90;99.90
12446;DHT22;6287;50.984;7.022;2023-03-15T08:33:09;4.00;99.90
12446;DHT22;6287;50.984;7.022;2023-03-15T08:35:36;4.00;99.90
12446;DHT22;6287;50.984;7.022;2023-03-15T08:38:05;4.20;99.90
12446;DHT22;6287;50.984;7.022;2023-03-15T08:40:31;4.30;99.90
12446;DHT22;6287;50.984;7.022;2023-03-15T08:42:59;4.40;99.90
12446;DHT22;6287;50.984;7.022;2023-03-15T08:45:25;4.40;99.90
12446;DHT22;6287;50.984;7.022;2023-03-15T08:47:58;4.40;99.90
12446;DHT22;6287;50.984;7.022;2023-03-15T08:50:27;4.40;99.90
12446;DHT22;6287;50.984;7.022;2023-03-15T08:52:56;4.40;99.90
12446;DHT22;6287;50.984;7.022;2023-03-15T08:55:21;4.50;99.90
12446;DHT22;6287;50.984;7.022;2023-03-15T08:57:47;4.70;99.90
12446;DHT22;6287;50.984;7.022;2023-03-15T09:00:13;4.90;99.90
12446;DHT22;6287;50.984;7.022;2023-03-15T09:02:49;5.10;99.90
12446;DHT22;6287;50.984;7.022;2023-03-15T09:05:18;5.20;99.90
12446;DHT22;6287;50.984;7.022;2023-03-15T09:07:45;5.40;99.90
12446;DHT22;6287;50.984;7.022;2023-03-15T09:10:13;5.60;99.90
12446;DHT22;6287;50.984;7.022;2023-03-15T09:12:46;5.80;99.90
12446;DHT22;6287;50.984;7.022;2023-03-15T09:15:15;5.90;99.90
12446;DHT22;6287;50.984;7.022;2023-03-15T09:17:41;6.00;99.90
12446;DHT22;6287;50.984;7.022;2023-03-15T09:20:13;5.90;99.90
12446;DHT22;6287;50.984;7.022;2023-03-15T09:22:41;6.00;99.90
12446;DHT22;6287;50.984;7.022;2023-03-15T09:25:08;5.70;99.90
12446;DHT22;6287;50.984;7.022;2023-03-15T09:27:34;5.50;99.90
12446;DHT22;6287;50.984;7.022;2023-03-15T09:30:02;5.60;99.90
12446;DHT22;6287;50.984;7.022;2023-03-15T09:32:32;5.80;99.90
12446;DHT22;6287;50.984;7.022;2023-03-15T09:35:04;6.00;99.90
12446;DHT22;6287;50.984;7.022;2023-03-15T09:37:35;6.50;99.90
12446;DHT22;6287;50.984;7.022;2023-03-15T09:40:00;6.90;99.90
12446;DHT22;6287;50.984;7.022;2023-03-15T09:50:20;7.30;99.90
12446;DHT22;6287;50.984;7.022;2023-03-15T09:53:07;7.40;99.90
12446;DHT22;6287;50.984;7.022;2023-03-15T09:55:41;7.50;99.90
12446;DHT22;6287;50.984;7.022;2023-03-15T09:58:16;7.80;99.90
12446;DHT22;6287;50.984;7.022;2023-03-15T10:01:12;8.10;99.90
12446;DHT22;6287;50.984;7.022;2023-03-15T10:03:48;8.00;99.90
12446;DHT22;6287;50.984;7.022;2023-03-15T10:06:30;7.80;99.90
12446;DHT22;6287;50.984;7.022;2023-03-15T10:09:02;7.80;99.90
12446;DHT22;6287;50.984;7.022;2023-03-15T10:16:50;8.50;99.90
12446;DHT22;6287;50.984;7.022;2023-03-15T10:22:20;8.70;99.90
12446;DHT22;6287;50.984;7.022;2023-03-15T10:27:21;8.60;99.90
12446;DHT22;6287;50.984;7.022;2023-03-15T10:29:50;8.60;99.90
12446;DHT22;6287;50.984;7.022;2023-03-15T10:32:24;8.40;99.90
12446;DHT22;6287;50.984;7.022;2023-03-15T10:34:52;8.50;99.90
12446;DHT22;6287;50.984;7.022;2023-03-15T10:37:19;8.80;99.90
12446;DHT22;6287;50.984;7.022;2023-03-15T10:39:54;8.80;99.90
12446;DHT22;6287;50.984;7.022;2023-03-15T10:42:32;8.80;99.90
12446;DHT22;6287;50.984;7.022;2023-03-15T10:44:59;9.20;99.90
12446;DHT22;6287;50.984;7.022;2023-03-15T10:47:42;9.60;99.90
12446;DHT22;6287;50.984;7.022;2023-03-15T10:50:09;10.00;99.90
12446;DHT22;6287;50.984;7.022;2023-03-15T10:52:40;10.30;99.90
12446;DHT22;6287;50.984;7.022;2023-03-15T10:55:16;10.70;99.90
12446;DHT22;6287;50.984;7.022;2023-03-15T10:57:57;11.00;99.90
12446;DHT22;6287;50.984;7.022;2023-03-15T11:00:32;11.00;99.10
12446;DHT22;6287;50.984;7.022;2023-03-15T11:03:06;10.90;99.10
12446;DHT22;6287;50.984;7.022;2023-03-15T11:05:53;10.80;99.90
12446;DHT22;6287;50.984;7.022;2023-03-15T11:08:39;10.80;99.30
12446;DHT22;6287;50.984;7.022;2023-03-15T11:11:10;10.70;99.20
12446;DHT22;6287;50.984;7.022;2023-03-15T11:13:38;10.90;99.90
12446;DHT22;6287;50.984;7.022;2023-03-15T11:16:18;11.20;99.80
12446;DHT22;6287;50.984;7.022;2023-03-15T11:18:57;11.40;99.90
12446;DHT22;6287;50.984;7.022;2023-03-15T11:21:29;11.80;99.90
12446;DHT22;6287;50.984;7.022;2023-03-15T11:23:58;11.90;96.00
12446;DHT22;6287;50.984;7.022;2023-03-15T11:26:27;11.90;99.60
12446;DHT22;6287;50.984;7.022;2023-03-15T11:28:58;12.50;98.90
12446;DHT22;6287;50.984;7.022;2023-03-15T11:31:26;12.70;97.00
12446;DHT22;6287;50.984;7.022;2023-03-15T11:34:03;12.60;94.70
12446;DHT22;6287;50.984;7.022;2023-03-15T11:36:32;12.50;93.30
12446;DHT22;6287;50.984;7.022;2023-03-15T11:39:02;12.30;94.00
12446;DHT22;6287;50.984;7.022;2023-03-15T11:41:37;12.10;93.10
12446;DHT22;6287;50.984;7.022;2023-03-15T11:52:01;12.60;96.20
12446;DHT22;6287;50.984;7.022;2023-03-15T11:54:29;12.90;87.00
12446;DHT22;6287;50.984;7.022;2023-03-15T12:02:52;12.60;85.70
12446;DHT22;6287;50.984;7.022;2023-03-15T12:08:19;12.80;91.10
12446;DHT22;6287;50.984;7.022;2023-03-15T12:10:49;13.00;89.20
12446;DHT22;6287;50.984;7.022;2023-03-15T12:13:41;12.80;85.60
12446;DHT22;6287;50.984;7.022;2023-03-15T12:16:20;12.20;90.30
12446;DHT22;6287;50.984;7.022;2023-03-15T12:18:46;11.80;89.90
12446;DHT22;6287;50.984;7.022;2023-03-15T12:21:33;11.90;91.20
12446;DHT22;6287;50.984;7.022;2023-03-15T12:24:03;12.20;90.10
12446;DHT22;6287;50.984;7.022;2023-03-15T12:26:49;12.50;85.70
12446;DHT22;6287;50.984;7.022;2023-03-15T12:39:57;12.90;84.80
12446;DHT22;6287;50.984;7.022;2023-03-15T12:45:32;13.10;91.40
12446;DHT22;6287;50.984;7.022;2023-03-15T12:48:18;13.70;86.30
12446;DHT22;6287;50.984;7.022;2023-03-15T12:55:56;13.80;81.10
12446;DHT22;6287;50.984;7.022;2023-03-15T12:58:30;14.10;79.30
12446;DHT22;6287;50.984;7.022;2023-03-15T13:01:03;14.30;79.50
12446;DHT22;6287;50.984;7.022;2023-03-15T13:03:32;14.30;80.00
12446;DHT22;6287;50.984;7.022;2023-03-15T13:16:57;12.60;85.20
12446;DHT22;6287;50.984;7.022;2023-03-15T13:19:45;13.10;85.70
12446;DHT22;6287;50.984;7.022;2023-03-15T13:22:25;13.30;80.70
12446;DHT22;6287;50.984;7.022;2023-03-15T13:25:01;13.30;79.20
12446;DHT22;6287;50.984;7.022;2023-03-15T13:27:54;13.70;80.70
12446;DHT22;6287;50.984;7.022;2023-03-15T13:30:41;14.50;78.00
12446;DHT22;6287;50.984;7.022;2023-03-15T13:33:26;15.40;75.40
12446;DHT22;6287;50.984;7.022;2023-03-15T13:38:33;16.20;71.10
12446;DHT22;6287;50.984;7.022;2023-03-15T13:41:03;15.70;71.20
12446;DHT22;6287;50.984;7.022;2023-03-15T13:43:37;15.00;70.00
12446;DHT22;6287;50.984;7.022;2023-03-15T13:46:05;14.50;70.60
12446;DHT22;6287;50.984;7.022;2023-03-15T13:48:34;14.30;71.40
12446;DHT22;6287;50.984;7.022;2023-03-15T13:53:47;14.20;66.80
12446;DHT22;6287;50.984;7.022;2023-03-15T13:56:27;13.60;72.00
12446;DHT22;6287;50.984;7.022;2023-03-15T13:58:56;13.10;75.40
12446;DHT22;6287;50.984;7.022;2023-03-15T14:01:22;12.60;76.40
12446;DHT22;6287;50.984;7.022;2023-03-15T14:03:57;12.40;74.90
12446;DHT22;6287;50.984;7.022;2023-03-15T14:06:26;12.40;72.40
12446;DHT22;6287;50.984;7.022;2023-03-15T14:08:58;12.40;76.10
12446;DHT22;6287;50.984;7.022;2023-03-15T14:13:55;13.60;74.70
12446;DHT22;6287;50.984;7.022;2023-03-15T14:16:55;14.40;72.80
12446;DHT22;6287;50.984;7.022;2023-03-15T14:19:31;15.30;65.00
12446;DHT22;6287;50.984;7.022;2023-03-15T14:22:02;15.90;61.50
12446;DHT22;6287;50.984;7.022;2023-03-15T14:27:00;15.80;60.40
12446;DHT22;6287;50.984;7.022;2023-03-15T14:29:33;15.00;61.30
12446;DHT22;6287;50.984;7.022;2023-03-15T14:32:04;14.10;62.60
12446;DHT22;6287;50.984;7.022;2023-03-15T14:34:42;13.40;65.00
12446;DHT22;6287;50.984;7.022;2023-03-15T14:37:32;12.80;66.00
12446;DHT22;6287;50.984;7.022;2023-03-15T14:43:00;11.90;64.20
12446;DHT22;6287;50.984;7.022;2023-03-15T14:45:30;11.80;62.90
12446;DHT22;6287;50.984;7.022;2023-03-15T14:50:39;11.70;64.70
12446;DHT22;6287;50.984;7.022;2023-03-15T14:53:07;11.50;69.70
12446;DHT22;6287;50.984;7.022;2023-03-15T14:55:36;11.40;64.80
12446;DHT22;6287;50.984;7.022;2023-03-15T14:58:05;11.30;64.20
12446;DHT22;6287;50.984;7.022;2023-03-15T15:00:34;11.20;66.40
12446;DHT22;6287;50.984;7.022;2023-03-15T15:03:02;11.10;66.60
12446;DHT22;6287;50.984;7.022;2023-03-15T15:05:32;11.00;72.20
12446;DHT22;6287;50.984;7.022;2023-03-15T15:08:04;11.00;70.20
12446;DHT22;6287;50.984;7.022;2023-03-15T15:10:31;11.00;67.70
12446;DHT22;6287;50.984;7.022;2023-03-15T15:12:59;11.00;67.20
12446;DHT22;6287;50.984;7.022;2023-03-15T15:15:24;11.10;68.60
12446;DHT22;6287;50.984;7.022;2023-03-15T15:17:50;11.20;70.50
12446;DHT22;6287;50.984;7.022;2023-03-15T15:20:18;11.40;72.70
12446;DHT22;6287;50.984;7.022;2023-03-15T15:22:45;11.50;70.60
12446;DHT22;6287;50.984;7.022;2023-03-15T15:25:14;11.70;72.80
12446;DHT22;6287;50.984;7.022;2023-03-15T15:27:46;11.80;69.50
12446;DHT22;6287;50.984;7.022;2023-03-15T15:30:20;11.90;66.50
12446;DHT22;6287;50.984;7.022;2023-03-15T15:32:47;11.90;63.10
12446;DHT22;6287;50.984;7.022;2023-03-15T15:35:14;11.70;65.50
12446;DHT22;6287;50.984;7.022;2023-03-15T15:37:41;11.70;67.90
12446;DHT22;6287;50.984;7.022;2023-03-15T15:40:23;11.70;64.50
12446;DHT22;6287;50.984;7.022;2023-03-15T15:42:49;11.70;69.20
12446;DHT22;6287;50.984;7.022;2023-03-15T15:45:18;11.60;71.00
12446;DHT22;6287;50.984;7.022;2023-03-15T15:47:44;11.50;65.90
12446;DHT22;6287;50.984;7.022;2023-03-15T15:50:12;11.40;68.50
12446;DHT22;6287;50.984;7.022;2023-03-15T15:52:42;11.40;67.40
12446;DHT22;6287;50.984;7.022;2023-03-15T15:55:18;11.40;67.50
12446;DHT22;6287;50.984;7.022;2023-03-15T15:57:49;11.50;68.40
12446;DHT22;6287;50.984;7.022;2023-03-15T16:00:21;11.50;66.50
12446;DHT22;6287;50.984;7.022;2023-03-15T16:02:51;11.50;69.70
12446;DHT22;6287;50.984;7.022;2023-03-15T16:05:20;11.60;68.10
12446;DHT22;6287;50.984;7.022;2023-03-15T16:07:50;11.60;67.00
12446;DHT22;6287;50.984;7.022;2023-03-15T16:10:28;11.60;68.10
12446;DHT22;6287;50.984;7.022;2023-03-15T16:12:55;11.60;69.90
12446;DHT22;6287;50.984;7.022;2023-03-15T16:15:24;11.70;71.50
12446;DHT22;6287;50.984;7.022;2023-03-15T16:17:51;11.70;74.20
12446;DHT22;6287;50.984;7.022;2023-03-15T16:20:20;11.60;70.50
12446;DHT22;6287;50.984;7.022;2023-03-15T16:22:51;11.60;69.20
12446;DHT22;6287;50.984;7.022;2023-03-15T16:25:22;11.50;69.30
12446;DHT22;6287;50.984;7.022;2023-03-15T16:27:51;11.30;69.90
12446;DHT22;6287;50.984;7.022;2023-03-15T16:30:23;11.10;73.20
12446;DHT22;6287;50.984;7.022;2023-03-15T16:32:52;10.90;70.20
12446;DHT22;6287;50.984;7.022;2023-03-15T16:35:24;10.70;72.90
12446;DHT22;6287;50.984;7.022;2023-03-15T16:37:53;10.60;71.20
12446;DHT22;6287;50.984;7.022;2023-03-15T16:40:26;10.40;74.80
12446;DHT22;6287;50.984;7.022;2023-03-15T16:42:53;10.30;76.00
12446;DHT22;6287;50.984;7.022;2023-03-15T16:45:19;10.00;77.70
12446;DHT22;6287;50.984;7.022;2023-03-15T16:47:45;9.80;82.60
12446;DHT22;6287;50.984;7.022;2023-03-15T16:50:14;9.70;82.20
12446;DHT22;6287;50.984;7.022;2023-03-15T16:52:41;9.60;82.40
12446;DHT22;6287;50.984;7.022;2023-03-15T16:55:24;9.40;81.20
12446;DHT22;6287;50.984;7.022;2023-03-15T16:57:49;9.30;84.80
12446;DHT22;6287;50.984;7.022;2023-03-15T17:00:18;9.20;83.60
12446;DHT22;6287;50.984;7.022;2023-03-15T17:02:46;9.00;82.10
12446;DHT22;6287;50.984;7.022;2023-03-15T17:05:12;8.90;83.90
12446;DHT22;6287;50.984;7.022;2023-03-15T17:07:44;8.80;84.00
12446;DHT22;6287;50.984;7.022;2023-03-15T17:10:26;8.50;85.70
12446;DHT22;6287;50.984;7.022;2023-03-15T17:12:56;8.40;83.10
12446;DHT22;6287;50.984;7.022;2023-03-15T17:15:25;8.20;87.00
12446;DHT22;6287;50.984;7.022;2023-03-15T17:17:54;8.10;87.20
12446;DHT22;6287;50.984;7.022;2023-03-15T17:20:23;8.50;89.80
12446;DHT22;6287;50.984;7.022;2023-03-15T17:22:56;7.80;89.20
12446;DHT22;6287;50.984;7.022;2023-03-15T17:25:23;7.60;90.00
12446;DHT22;6287;50.984;7.022;2023-03-15T17:27:54;7.50;89.70
12446;DHT22;6287;50.984;7.022;2023-03-15T17:30:29;7.40;90.60
12446;DHT22;6287;50.984;7.022;2023-03-15T17:32:57;7.30;90.20
12446;DHT22;6287;50.984;7.022;2023-03-15T17:35:30;7.20;89.40
12446;DHT22;6287;50.984;7.022;2023-03-15T17:37:56;7.20;89.60
12446;DHT22;6287;50.984;7.022;2023-03-15T17:42:51;7.00;90.50
12446;DHT22;6287;50.984;7.022;2023-03-15T17:45:22;6.90;91.50
12446;DHT22;6287;50.984;7.022;2023-03-15T17:47:51;6.90;92.40